AirNav   ProFlight Series 2 Aviation Headset
 
 404 users online  

4FD6 Pine Island Helistop
Pine Island Center, Florida, USA

GOING TO PINE ISLAND CENTER?


FAA INFORMATION EFFECTIVE 16 JULY 2020

Location

FAA Identifier: 4FD6
Lat/Long: 26-36-24.2690N 082-06-39.3320W
26-36.404483N 082-06.655533W
26.6067414,-82.1109256
(estimated)
Elevation: 10 ft. / 3 m (estimated)
Variation: 02W (1985)
From city: 1 mile N of PINE ISLAND CENTER, FL
Time zone: UTC -4 (UTC -5 during Standard Time)
Zip code: 33922

Heliport Operations

Heliport use: Private use. Permission required prior to landing
Activation date: 03/1988
Control tower: no
ARTCC: MIAMI CENTER
FSS: MIAMI FLIGHT SERVICE STATION
Attendance: UNATNDD
Segmented circle: no

Heliport Communications

WX ASOS at FMY (13 nm E): 123.725 (239-936-2318)
WX ASOS at RSW (20 nm E): PHONE 239-561-0966
WX ASOS at PGD (20 nm N): 135.675 (941-639-0076)

Nearby radio navigation aids

VOR radial/distance  VOR name  Freq  Var
RSWr286/18.6LEE COUNTY VORTAC111.8002W
PGDr205/(19.7)PUNTA GORDA VOR110.2006W
CYYr330/32.6CYPRESS VOR/DME108.6003W

 
NDB name  Hdg/Dist  Freq  Var  ID
CALOO305/10.234103WFM ..-. --

Heliport Services

Runway Information

Helipad H1

Dimensions: 100 x 100 ft. / 30 x 30 m
Surface: concrete
Latitude: 26-36.404483N
Longitude: 082-06.655533W
Elevation: 10.0 ft.
Traffic pattern: leftleft

Heliport Ownership and Management from official FAA records

Ownership: Publicly-owned
Owner: LEE CO MOSQUITO CONTROL DIST
15191 HOMESTEAD RD
LEHIGH ACRES, FL 33971
Phone 239-694-2174
Manager: MIKE VIGUS
15191 HOMESTEAD RD
LEHIGH ACRES, FL 33971
Phone 239-694-2174

Heliport Operational Statistics

Aircraft operations: avg 83/month
100% local general aviation

Additional Remarks

FOR CD CTC FORT MYERS APCH AT 239-768-1377, WHEN APCH CLSD CTC MIAMI ARTCC AT 305-716-1731.

Instrument Procedures

There are no published instrument procedures at 4FD6.

Some nearby airports with instrument procedures:

KFMY - Page Field Airport (13 nm E)
KRSW - Southwest Florida International Airport (20 nm E)
KPGD - Punta Gorda Airport (20 nm N)
KAPF - Naples Municipal Airport (33 nm SE)
KVNC - Venice Municipal Airport (33 nm NW)
 
Loc | Ops | Rwys | IFR | FBO | Links
Com | Nav | Svcs | Stats | Notes


 
Area around 4FD6 (Pine Island Helistop)
 
Road maps at: MapQuest Bing Google
 
Aerial photo
No photo
 
Sectional chart

 
Airport distance calculator
Flying to Pine Island Helistop? Find the distance to fly.

From to 4FD6

Sunrise and sunset
Times for 10-Aug-2020
 Local
(UTC-4)
 Zulu
(UTC)
Morning civil twilight06:3510:35
Sunrise06:5910:59
Sunset20:0800:08
Evening civil twilight20:3200:32

Current date and time
Zulu (UTC)  10-Aug-2020 08:54:39
Local (UTC-4)  10-Aug-2020 04:54:39
 
METAR
KFMY 
13nm E 
100753Z AUTO 00000KT 10SM CLR 24/24 A3007 RMK AO2 SLP185 T02440239 $
KRSW 
19nm E 
100753Z AUTO 06004KT 10SM CLR 24/23 A3008 RMK AO2 SLP183 T02390233
KPGD 
20nm N 
100753Z AUTO 04003KT 10SM CLR 24/23 A3010 RMK AO2 SLP191 T02440233
TAF
KFMY 
13nm E 
100531Z 1006/1106 09005KT P6SM BKN200 FM101700 11006KT P6SM VCTS SCT030CB BKN250 FM102300 36007KT P6SM SCT030 BKN250
KRSW 
19nm E 
100531Z 1006/1106 09005KT P6SM BKN200 FM101700 12006KT P6SM VCTS SCT030CB BKN250 FM102300 08007KT P6SM SCT030 BKN250
KPGD 
20nm N 
100531Z 1006/1106 09005KT P6SM BKN200 FM101700 11005KT P6SM VCTS SCT030CB BKN250 FM102300 03007KT P6SM SCT030 BKN250
NOTAMs
Click for the latest NOTAMs
NOTAMs are issued by the DoD/FAA and will open in a separate window not controlled by AirNav.

 

 
 

Would you like to see your business listed on this page?

 If your business provides an interesting product or service to pilots, flight crews, aircraft, or users of the Pine Island Helistop, you should consider listing it here.  To start the listing process, click on the button below
 
Add a business
 

Other Pages about Pine Island Helistop

Update a link
 
Copyright © AirNav, LLC. All rights reserved. Privacy Policy  Contact